createdAt,value
2019-05-03T00:01:02.360Z,1.47
2019-05-03T00:04:12.976Z,1.20
2019-05-03T00:10:33.666Z,1.20
2019-05-03T00:20:32.595Z,1.40
2019-05-03T00:24:18.786Z,1.33
2019-05-03T00:27:06.504Z,1.30
2019-05-03T00:29:58.073Z,1.10
2019-05-03T00:33:16.036Z,1.20
2019-05-03T00:36:32.664Z,1.20
2019-05-03T00:59:29.924Z,1.43
2019-05-03T01:02:19.870Z,1.30
2019-05-03T01:05:08.752Z,1.37
2019-05-03T01:07:56.809Z,1.40
2019-05-03T01:15:02.035Z,1.40
2019-05-03T01:28:16.591Z,1.47
2019-05-03T01:38:06.205Z,1.00
2019-05-03T01:41:02.030Z,1.00
2019-05-03T01:50:18.839Z,0.80
2019-05-03T01:56:56.792Z,1.10
2019-05-03T01:59:37.893Z,1.37
2019-05-03T02:02:57.845Z,1.30
2019-05-03T02:10:03.558Z,1.30
2019-05-03T02:16:46.475Z,1.30
2019-05-03T02:23:47.034Z,1.27
2019-05-03T02:31:10.034Z,1.30
2019-05-03T02:34:03.256Z,1.60
2019-05-03T02:44:06.280Z,1.30
2019-05-03T02:57:01.366Z,1.80
2019-05-03T02:59:49.915Z,1.63
2019-05-03T03:02:39.933Z,1.37
2019-05-03T03:09:35.985Z,1.20
2019-05-03T03:15:51.379Z,1.30
2019-05-03T03:26:37.674Z,1.87
2019-05-03T03:29:51.846Z,1.50
2019-05-03T03:43:05.389Z,1.50
2019-05-03T03:46:19.050Z,2.00
2019-05-03T03:52:46.039Z,1.50
2019-05-03T03:55:35.806Z,1.43
2019-05-03T03:58:26.722Z,1.50
2019-05-03T04:02:11.371Z,1.40
2019-05-03T04:05:05.672Z,1.27
2019-05-03T04:12:16.791Z,1.27
2019-05-03T04:15:37.135Z,1.40
2019-05-03T04:18:59.249Z,1.40
2019-05-03T04:32:30.159Z,1.20
2019-05-03T04:35:05.543Z,1.30
2019-05-03T04:40:49.219Z,1.40
2019-05-03T04:43:37.355Z,1.57
2019-05-03T04:47:20.750Z,1.40
2019-05-03T04:50:10.416Z,1.47
2019-05-03T04:59:45.218Z,1.60
2019-05-03T05:02:38.166Z,1.33
2019-05-03T05:05:27.504Z,1.40
2019-05-03T05:08:35.826Z,1.53
2019-05-03T05:11:35.048Z,1.50
2019-05-03T05:18:28.403Z,1.30
2019-05-03T05:21:38.368Z,1.10
2019-05-03T05:24:26.526Z,1.30
2019-05-03T05:27:48.360Z,1.33
2019-05-03T05:30:27.102Z,1.47
2019-05-03T05:33:21.500Z,1.67
2019-05-03T05:36:34.735Z,1.20
2019-05-03T05:39:24.476Z,1.40
2019-05-03T05:42:14.778Z,1.57
2019-05-03T05:45:11.208Z,1.10
2019-05-03T05:48:21.008Z,1.17
2019-05-03T05:51:16.190Z,1.30
2019-05-03T05:58:12.885Z,1.20
2019-05-03T06:01:05.561Z,1.07
2019-05-03T06:07:36.968Z,1.40
2019-05-03T06:11:05.210Z,1.20
2019-05-03T06:13:45.599Z,1.10
2019-05-03T06:16:47.214Z,1.23
2019-05-03T06:19:59.909Z,1.00
2019-05-03T06:29:45.366Z,1.10
2019-05-03T06:35:44.952Z,1.00
2019-05-03T06:38:52.319Z,1.00
2019-05-03T06:41:41.359Z,1.12
2019-05-03T06:44:38.419Z,0.90
2019-05-03T06:51:10.956Z,1.17
2019-05-03T06:53:57.131Z,1.20
2019-05-03T07:00:10.367Z,1.20
2019-05-03T07:03:17.129Z,1.30
2019-05-03T07:10:00.437Z,1.00
2019-05-03T07:13:09.056Z,0.90
2019-05-03T07:23:09.249Z,1.37
2019-05-03T07:25:59.366Z,1.10
2019-05-03T07:29:41.866Z,1.10
2019-05-03T07:31:44.650Z,1.00
2019-05-03T07:34:35.066Z,1.00
2019-05-03T07:41:06.757Z,0.80
2019-05-03T07:43:55.102Z,1.20
2019-05-03T07:50:21.094Z,1.00
2019-05-03T07:53:08.285Z,1.00
2019-05-03T07:56:26.834Z,1.27
2019-05-03T07:59:15.102Z,0.93
2019-05-03T08:02:02.466Z,0.90
2019-05-03T08:04:50.214Z,1.00
2019-05-03T08:07:58.431Z,0.90
2019-05-03T08:10:49.275Z,1.00
2019-05-03T08:13:37.406Z,0.90
2019-05-03T08:16:25.494Z,0.80
2019-05-03T08:19:15.196Z,1.10
2019-05-03T08:22:04.596Z,1.00
2019-05-03T08:24:52.124Z,1.20
2019-05-03T08:27:40.231Z,1.10
2019-05-03T08:30:47.704Z,1.20
2019-05-03T08:33:55.366Z,2.53
2019-05-03T08:37:05.436Z,1.20
2019-05-03T08:39:55.100Z,0.93
2019-05-03T08:42:41.608Z,0.83
2019-05-03T08:45:28.710Z,1.50
2019-05-03T08:48:16.695Z,1.23
2019-05-03T08:51:04.710Z,3.33
2019-05-03T08:53:52.574Z,4.53
2019-05-03T08:56:40.140Z,0.80
2019-05-03T08:59:32.302Z,2.03
2019-05-03T09:02:17.861Z,2.60
2019-05-03T09:05:05.482Z,1.60
2019-05-03T09:07:54.755Z,1.70
2019-05-03T09:10:54.543Z,1.90
2019-05-03T09:14:01.500Z,2.87
2019-05-03T09:16:49.408Z,1.80
2019-05-03T09:19:40.499Z,2.00
2019-05-03T09:22:28.209Z,0.80
2019-05-03T09:25:16.119Z,0.93
2019-05-03T09:28:04.709Z,0.90
2019-05-03T09:30:55.048Z,1.00
2019-05-03T09:33:45.179Z,0.80
2019-05-03T09:36:34.379Z,0.83
2019-05-03T09:45:46.840Z,0.90
2019-05-03T09:48:34.783Z,1.10
2019-05-03T09:51:26.212Z,1.00
2019-05-03T09:54:28.106Z,0.90
2019-05-03T09:57:16.427Z,1.40
2019-05-03T10:00:06.975Z,0.83
2019-05-03T10:02:55.185Z,0.70
2019-05-03T10:05:42.918Z,0.77
2019-05-03T10:08:35.689Z,0.60
2019-05-03T10:11:35.062Z,0.60
2019-05-03T10:14:21.544Z,0.70
2019-05-03T10:17:21.348Z,0.60
2019-05-03T10:20:10.839Z,1.30
2019-05-03T10:23:06.221Z,0.70
2019-05-03T10:25:55.217Z,0.70
2019-05-03T10:28:42.799Z,0.70
2019-05-03T10:31:38.385Z,0.60
2019-05-03T10:38:27.072Z,0.73
2019-05-03T10:41:16.997Z,0.80
2019-05-03T10:44:31.516Z,0.70
2019-05-03T10:47:38.835Z,0.67
2019-05-03T10:50:30.379Z,0.80
2019-05-03T10:53:36.842Z,0.67
2019-05-03T10:56:45.388Z,0.80
2019-05-03T10:59:32.816Z,0.90
2019-05-03T11:02:35.210Z,0.80
2019-05-03T11:05:26.174Z,1.10
2019-05-03T11:08:14.560Z,0.90
2019-05-03T11:11:03.104Z,1.37
2019-05-03T11:14:14.797Z,1.20
2019-05-03T11:17:30.739Z,0.80
2019-05-03T11:23:29.627Z,0.70
2019-05-03T11:26:20.831Z,0.80
2019-05-03T11:29:11.930Z,0.73
2019-05-03T11:32:37.984Z,0.80
2019-05-03T11:35:41.179Z,1.10
2019-05-03T11:38:38.884Z,0.80
2019-05-03T11:48:30.551Z,0.60
2019-05-03T11:51:28.025Z,0.70
2019-05-03T11:54:18.881Z,0.80
2019-05-03T11:57:41.509Z,0.50
2019-05-03T12:00:42.341Z,0.60
2019-05-03T12:03:37.737Z,0.70
2019-05-03T12:06:32.912Z,0.60
2019-05-03T12:09:20.821Z,0.70
2019-05-03T12:12:29.546Z,0.80
2019-05-03T12:15:20.899Z,0.70
2019-05-03T12:18:11.740Z,0.80
2019-05-03T12:21:00.850Z,0.87
2019-05-03T12:24:12.126Z,0.70
2019-05-03T12:27:01.752Z,0.80
2019-05-03T12:29:52.476Z,0.60
2019-05-03T12:32:43.851Z,0.60
2019-05-03T12:35:32.126Z,0.77
2019-05-03T12:38:21.142Z,0.60
2019-05-03T12:41:25.431Z,0.90
2019-05-03T12:44:16.220Z,0.50
2019-05-03T12:54:56.166Z,0.70
2019-05-03T12:57:45.761Z,0.60
2019-05-03T13:03:55.419Z,0.67
2019-05-03T13:10:31.178Z,0.80
2019-05-03T13:13:46.178Z,0.60
2019-05-03T13:16:41.813Z,0.80
2019-05-03T13:19:35.560Z,0.70
2019-05-03T13:26:07.303Z,0.80
2019-05-03T13:28:59.824Z,0.70
2019-05-03T13:32:00.735Z,0.60
2019-05-03T13:34:45.822Z,0.60
2019-05-03T13:37:35.760Z,0.90
2019-05-03T13:44:07.840Z,0.90
2019-05-03T13:47:00.473Z,0.70
2019-05-03T13:49:45.200Z,0.90
2019-05-03T13:52:47.032Z,0.80
2019-05-03T13:55:38.590Z,0.80
2019-05-03T13:58:55.157Z,0.70
2019-05-03T14:01:45.103Z,0.70
2019-05-03T14:04:50.146Z,0.87
2019-05-03T14:07:56.182Z,0.70
2019-05-03T14:13:51.073Z,0.87
2019-05-03T14:16:40.769Z,0.90
2019-05-03T14:19:35.451Z,0.90
2019-05-03T14:22:26.963Z,0.67
2019-05-03T14:25:16.226Z,0.80
2019-05-03T14:28:07.476Z,0.97
2019-05-03T14:35:03.973Z,0.73
2019-05-03T14:37:58.120Z,0.60
2019-05-03T14:48:09.823Z,0.70
2019-05-03T14:51:29.167Z,0.97
2019-05-03T14:54:20.746Z,1.13
2019-05-03T15:01:44.826Z,0.70
2019-05-03T15:07:45.851Z,0.70
2019-05-03T15:13:45.545Z,0.50
2019-05-03T15:17:06.799Z,0.83
2019-05-03T15:19:54.734Z,0.60
2019-05-03T15:22:51.715Z,0.70
2019-05-03T15:25:45.228Z,0.60
2019-05-03T15:28:35.404Z,0.80
2019-05-03T15:31:24.450Z,0.80
2019-05-03T15:34:15.217Z,0.53
2019-05-03T15:37:14.702Z,0.40
2019-05-03T15:40:06.206Z,0.60
2019-05-03T15:43:15.059Z,0.50
2019-05-03T15:46:22.048Z,0.70
2019-05-03T15:49:10.590Z,0.50
2019-05-03T15:52:10.264Z,1.77
2019-05-03T15:58:46.675Z,0.57
2019-05-03T16:01:35.161Z,0.60
2019-05-03T16:04:25.088Z,0.90
2019-05-03T16:07:14.472Z,0.87
2019-05-03T16:10:29.066Z,0.80
2019-05-03T16:13:18.642Z,0.60
2019-05-03T16:16:10.100Z,0.60
2019-05-03T16:19:05.398Z,0.77
2019-05-03T16:21:54.529Z,0.60
2019-05-03T16:27:59.826Z,0.43
2019-05-03T16:34:46.066Z,0.50
2019-05-03T16:38:02.365Z,0.70
2019-05-03T16:40:49.858Z,0.70
2019-05-03T16:43:37.125Z,0.70
2019-05-03T16:46:26.081Z,1.40
2019-05-03T16:49:15.602Z,0.60
2019-05-03T16:52:05.526Z,0.60
2019-05-03T16:54:54.715Z,1.30
2019-05-03T16:57:44.246Z,1.27
2019-05-03T17:00:35.140Z,1.30
2019-05-03T17:03:38.670Z,1.57
2019-05-03T17:06:39.295Z,1.20
2019-05-03T17:09:44.439Z,1.37
2019-05-03T17:12:52.248Z,1.03
2019-05-03T17:16:20.686Z,1.30
2019-05-03T17:19:09.113Z,1.40
2019-05-03T17:22:00.419Z,1.43
2019-05-03T17:25:20.275Z,1.60
2019-05-03T17:28:10.151Z,1.60
2019-05-03T17:30:58.795Z,1.40
2019-05-03T17:33:56.944Z,1.75
2019-05-03T17:36:45.086Z,1.63
2019-05-03T17:40:06.788Z,1.60
2019-05-03T17:43:11.777Z,1.40
2019-05-03T17:46:14.890Z,1.60
2019-05-03T17:52:47.840Z,1.70
2019-05-03T17:56:06.988Z,1.50
2019-05-03T18:02:58.363Z,1.47
2019-05-03T18:09:28.316Z,1.67
2019-05-03T18:12:16.698Z,1.60
2019-05-03T18:15:12.094Z,1.37
2019-05-03T18:21:55.596Z,1.37
2019-05-03T18:24:46.591Z,1.40
2019-05-03T18:27:44.599Z,1.20
2019-05-03T18:34:19.768Z,1.80
2019-05-03T18:37:59.245Z,1.37
2019-05-03T18:40:48.321Z,1.50
2019-05-03T18:47:07.362Z,1.33
2019-05-03T18:50:30.702Z,1.40
2019-05-03T18:53:22.323Z,1.20
2019-05-03T18:56:10.864Z,1.40
2019-05-03T18:59:00.124Z,1.50
2019-05-03T19:01:48.771Z,1.30
2019-05-03T19:04:54.436Z,1.50
2019-05-03T19:08:00.233Z,1.50
2019-05-03T19:10:52.469Z,1.40
2019-05-03T19:13:58.503Z,1.40
2019-05-03T19:20:31.521Z,1.30
2019-05-03T19:23:24.758Z,1.47
2019-05-03T19:26:26.564Z,1.50
2019-05-03T19:32:33.136Z,1.50
2019-05-03T19:35:20.231Z,1.70
2019-05-03T19:38:08.208Z,1.70
2019-05-03T19:41:09.259Z,1.57
2019-05-03T19:43:59.163Z,1.90
2019-05-03T19:46:50.060Z,1.80
2019-05-03T19:49:39.184Z,1.53
2019-05-03T19:52:30.011Z,1.60
2019-05-03T19:55:20.474Z,1.70
2019-05-03T19:58:17.946Z,1.30
2019-05-03T20:01:46.392Z,1.33
2019-05-03T20:05:11.578Z,1.40
2019-05-03T20:08:35.746Z,1.33
2019-05-03T20:11:25.177Z,1.23
2019-05-03T20:14:14.847Z,1.20
2019-05-03T20:17:10.475Z,1.33
2019-05-03T20:19:58.908Z,1.50
2019-05-03T20:25:40.603Z,1.27
2019-05-03T20:31:36.721Z,1.47
2019-05-03T20:34:24.981Z,1.20
2019-05-03T20:37:14.773Z,1.33
2019-05-03T20:40:10.748Z,1.40
2019-05-03T20:43:37.458Z,1.73
2019-05-03T20:46:43.304Z,1.63
2019-05-03T20:49:35.826Z,1.93
2019-05-03T20:52:27.149Z,1.60
2019-05-03T20:55:15.633Z,1.70
2019-05-03T21:02:02.137Z,2.00
2019-05-03T21:04:55.739Z,1.90
2019-05-03T21:07:48.065Z,1.83
2019-05-03T21:10:44.607Z,1.70
2019-05-03T21:13:42.608Z,1.77
2019-05-03T21:16:48.043Z,1.63
2019-05-03T21:19:58.692Z,2.00
2019-05-03T21:22:52.250Z,1.50
2019-05-03T21:26:03.512Z,1.53
2019-05-03T21:28:36.670Z,1.57
2019-05-03T21:31:31.458Z,1.60
2019-05-03T21:37:34.887Z,1.50
2019-05-03T21:40:29.352Z,1.83
2019-05-03T21:43:17.896Z,1.70
2019-05-03T21:46:36.632Z,1.83
2019-05-03T21:49:36.076Z,1.67
2019-05-03T21:52:39.092Z,1.60
2019-05-03T21:55:35.749Z,2.00
2019-05-03T22:01:31.637Z,1.70
2019-05-03T22:04:26.302Z,1.83
2019-05-03T22:07:37.888Z,2.00
2019-05-03T22:10:55.841Z,1.50
2019-05-03T22:14:07.545Z,1.30
2019-05-03T22:17:14.774Z,1.83
2019-05-03T22:20:35.212Z,1.60
2019-05-03T22:23:40.537Z,1.50
2019-05-03T22:40:15.116Z,1.30
2019-05-03T22:43:04.647Z,1.30
2019-05-03T22:45:54.678Z,1.37
2019-05-03T22:48:57.119Z,1.57
2019-05-03T22:51:45.555Z,1.40
2019-05-03T22:54:55.557Z,1.43
2019-05-03T22:58:20.127Z,1.60
2019-05-03T23:05:11.616Z,2.00
2019-05-03T23:07:59.823Z,1.80
2019-05-03T23:14:04.874Z,1.50
2019-05-03T23:16:58.601Z,1.70
2019-05-03T23:20:15.042Z,1.67
2019-05-03T23:30:09.496Z,1.93
2019-05-03T23:33:09.674Z,2.23
2019-05-03T23:42:59.657Z,2.00
2019-05-03T23:45:47.066Z,2.30
2019-05-03T23:48:35.844Z,2.37
2019-05-03T23:51:44.348Z,2.30
2019-05-03T23:55:09.701Z,2.33
2019-05-03T23:57:29.678Z,2.47
